Time;durP1;ratioP1;P1;durP2;ratioP2;P2;SDS_P1;SDS_P2;PMS_P1;PMS_P2;Temp;Humidity;BMP_temperature;BMP_pressure;BME280_temperature;BME280_humidity;BME280_pressure;Samples;Min_cycle;Max_cycle;Signal;HPM_P1;HPM_P2
2023/03/02 00:01:35;;;;;;;0.20;0.20;;;;;;;10.16;58.49;102716.34;5026731;28;20048;-64
2023/03/02 00:04:02;;;;;;;0.30;0.30;;;;;;;10.07;58.56;102712.81;5025941;28;20115;-65
2023/03/02 00:06:29;;;;;;;0.30;0.30;;;;;;;10.27;57.49;102719.47;5027840;28;20532;-66
2023/03/02 00:08:59;;;;;;;0.20;0.20;;;;;;;10.21;57.72;102722.84;5024342;28;20041;-64
2023/03/02 00:11:25;;;;;;;0.28;0.28;;;;;;;10.21;57.36;102722.00;5023629;28;20029;-65
2023/03/02 00:13:50;;;;;;;0.30;0.30;;;;;;;9.89;58.11;102724.81;5026065;28;20049;-65
2023/03/02 00:16:16;;;;;;;0.30;0.30;;;;;;;10.13;57.84;102727.44;5017059;28;20535;-64
2023/03/02 00:18:41;;;;;;;0.30;0.30;;;;;;;9.85;58.69;102727.03;5022016;28;20041;-66
2023/03/02 00:21:09;;;;;;;0.40;0.40;;;;;;;9.96;58.01;102721.28;5026585;28;20045;-64
2023/03/02 00:23:35;;;;;;;0.22;0.22;;;;;;;9.65;58.90;102723.91;5026233;28;20040;-65
2023/03/02 00:26:00;;;;;;;0.30;0.30;;;;;;;9.57;59.71;102726.63;5009770;28;20270;-64
2023/03/02 00:28:26;;;;;;;0.20;0.20;;;;;;;9.80;59.42;102713.31;5007308;28;20441;-64
2023/03/02 00:30:51;;;;;;;0.22;0.22;;;;;;;9.83;59.43;102718.31;5028476;28;20063;-65
2023/03/02 00:33:16;;;;;;;0.40;0.40;;;;;;;10.26;58.11;102723.16;5008170;28;20041;-66
2023/03/02 00:35:42;;;;;;;0.20;0.20;;;;;;;9.57;59.47;102715.06;5026488;28;20060;-66
2023/03/02 00:38:08;;;;;;;0.20;0.20;;;;;;;9.77;59.04;102720.88;5028520;28;20104;-64
2023/03/02 00:40:34;;;;;;;0.20;0.20;;;;;;;9.83;58.25;102715.63;5028093;28;20042;-65
2023/03/02 00:43:00;;;;;;;0.30;0.30;;;;;;;9.29;59.57;102713.78;5003759;28;20581;-64
2023/03/02 00:45:25;;;;;;;0.25;0.25;;;;;;;9.14;61.21;102710.97;5022243;28;20045;-65
2023/03/02 00:47:50;;;;;;;0.30;0.30;;;;;;;9.14;61.34;102712.84;5024660;28;20040;-64
2023/03/02 00:50:16;;;;;;;0.30;0.30;;;;;;;9.62;59.21;102707.31;5020222;28;20057;-63
2023/03/02 00:52:41;;;;;;;0.30;0.30;;;;;;;9.75;59.08;102708.44;5020147;28;20575;-65
2023/03/02 00:55:08;;;;;;;0.20;0.20;;;;;;;9.45;60.04;102703.84;5026100;28;20535;-66
2023/03/02 00:57:33;;;;;;;0.30;0.30;;;;;;;9.47;60.38;102709.88;5027135;28;20064;-66
2023/03/02 00:59:59;;;;;;;0.30;0.30;;;;;;;9.68;58.68;102720.91;5021706;28;20064;-64
2023/03/02 01:02:25;;;;;;;0.30;0.30;;;;;;;9.23;60.04;102714.47;5026646;28;20040;-65
2023/03/02 01:04:52;;;;;;;0.30;0.30;;;;;;;8.83;61.47;102713.50;5023551;28;20295;-66
2023/03/02 01:07:19;;;;;;;0.32;0.32;;;;;;;8.75;61.16;102721.56;5023694;28;20044;-64
2023/03/02 01:09:47;;;;;;;0.32;0.32;;;;;;;9.25;59.66;102710.63;5021525;28;20404;-66
2023/03/02 01:12:13;;;;;;;0.30;0.30;;;;;;;8.58;61.70;102714.53;5001755;28;20079;-64
2023/03/02 01:14:41;;;;;;;0.32;0.32;;;;;;;9.07;60.30;102709.13;5020659;28;20076;-66
2023/03/02 01:17:09;;;;;;;0.20;0.20;;;;;;;9.11;59.53;102697.91;5022986;28;20041;-65
2023/03/02 01:19:35;;;;;;;0.30;0.30;;;;;;;9.23;58.66;102695.69;5025457;28;20171;-64
2023/03/02 01:22:01;;;;;;;0.30;0.30;;;;;;;9.76;57.14;102690.50;5020209;28;20095;-67
2023/03/02 01:24:26;;;;;;;0.30;0.30;;;;;;;9.32;58.73;102691.97;5026566;28;20445;-65
2023/03/02 01:26:52;;;;;;;0.20;0.20;;;;;;;8.82;60.23;102685.00;5028550;28;20368;-65
2023/03/02 01:29:18;;;;;;;0.30;0.30;;;;;;;8.99;59.46;102685.84;5029823;28;20428;-64
2023/03/02 01:31:43;;;;;;;0.30;0.30;;;;;;;9.28;58.60;102683.44;5030042;28;20128;-63
2023/03/02 01:34:08;;;;;;;0.30;0.30;;;;;;;8.46;62.14;102690.88;5029731;28;20048;-66
2023/03/02 01:36:34;;;;;;;0.30;0.30;;;;;;;8.51;61.77;102684.03;5030433;28;20128;-65
2023/03/02 01:38:59;;;;;;;0.30;0.30;;;;;;;8.55;61.74;102674.66;5030259;28;20156;-64
2023/03/02 01:41:26;;;;;;;0.30;0.30;;;;;;;9.05;60.59;102679.81;5031690;28;20096;-65
2023/03/02 01:43:51;;;;;;;0.30;0.30;;;;;;;9.03;59.42;102673.78;5029666;28;20056;-66
2023/03/02 01:46:24;;;;;;;0.30;0.30;;;;;;;8.67;61.42;102667.94;5028538;28;20041;-64
2023/03/02 01:48:56;;;;;;;0.28;0.28;;;;;;;8.73;61.35;102661.06;5029129;28;20544;-64
2023/03/02 01:51:24;;;;;;;0.30;0.30;;;;;;;8.82;60.56;102665.44;5030838;28;20140;-66
2023/03/02 01:53:53;;;;;;;0.30;0.30;;;;;;;8.68;60.41;102653.56;5030802;28;20048;-66
2023/03/02 01:56:25;;;;;;;0.50;0.50;;;;;;;9.15;60.30;102663.53;5031423;28;20025;-67
2023/03/02 01:59:00;;;;;;;0.30;0.30;;;;;;;9.02;59.71;102656.00;5030820;28;20116;-67
2023/03/02 02:01:28;;;;;;;0.30;0.30;;;;;;;8.54;60.75;102656.91;5028956;28;20068;-65
2023/03/02 02:03:54;;;;;;;0.20;0.20;;;;;;;8.58;60.83;102652.88;5030466;28;20477;-65
2023/03/02 02:06:28;;;;;;;0.40;0.40;;;;;;;9.20;58.95;102658.50;5013350;28;20045;-65
2023/03/02 02:08:56;;;;;;;0.35;0.35;;;;;;;8.57;60.40;102653.88;5014347;28;20040;-64
2023/03/02 02:11:22;;;;;;;0.40;0.40;;;;;;;8.43;61.03;102653.72;5031313;28;20112;-66
2023/03/02 02:13:47;;;;;;;0.30;0.30;;;;;;;8.73;59.76;102648.50;5030928;28;20121;-66
2023/03/02 02:16:13;;;;;;;0.30;0.30;;;;;;;8.32;62.68;102648.69;5020986;28;20053;-65
2023/03/02 02:18:40;;;;;;;0.30;0.30;;;;;;;8.86;59.83;102643.47;5026560;28;20041;-66
2023/03/02 02:21:07;;;;;;;0.30;0.30;;;;;;;8.69;60.09;102641.81;5020390;28;20485;-65
2023/03/02 02:23:48;;;;;;;0.40;0.40;;;;;;;8.63;60.42;102641.66;5015733;28;20505;-65
2023/03/02 02:26:30;;;;;;;0.30;0.30;;;;;;;8.98;59.37;102635.09;5018768;28;20080;-65
2023/03/02 02:29:01;;;;;;;0.30;0.30;;;;;;;8.60;60.49;102633.97;5035229;28;20122;-64
2023/03/02 02:31:36;;;;;;;0.30;0.30;;;;;;;8.29;61.79;102628.44;5035061;28;20038;-65
2023/03/02 02:34:08;;;;;;;0.30;0.30;;;;;;;9.10;58.99;102621.13;5034893;28;20038;-65
2023/03/02 02:36:39;;;;;;;0.30;0.30;;;;;;;8.28;61.79;102628.59;5034607;28;20032;-64
2023/03/02 02:39:07;;;;;;;0.30;0.30;;;;;;;8.44;61.44;102618.72;5034445;28;20021;-64
2023/03/02 02:41:36;;;;;;;0.50;0.50;;;;;;;8.54;60.69;102621.22;5035208;28;20021;-66
2023/03/02 02:44:02;;;;;;;0.30;0.30;;;;;;;8.62;61.00;102623.91;5034694;28;20378;-67
2023/03/02 02:46:28;;;;;;;0.50;0.50;;;;;;;9.11;58.42;102617.44;5034793;28;20037;-65
2023/03/02 02:48:53;;;;;;;0.32;0.32;;;;;;;8.68;59.91;102628.59;5034519;28;20041;-65
2023/03/02 02:51:27;;;;;;;0.30;0.30;;;;;;;8.70;60.22;102631.94;5034457;28;20145;-65
2023/03/02 02:53:58;;;;;;;0.30;0.30;;;;;;;8.78;59.66;102622.06;5034371;28;20112;-64
2023/03/02 02:56:25;;;;;;;;;;;;;;;9.08;59.44;102631.19;5035660;28;20119;-63
2023/03/02 02:58:54;;;;;;;0.30;0.30;;;;;;;9.01;59.19;102626.69;5034556;28;20334;-64
2023/03/02 03:01:24;;;;;;;0.35;0.35;;;;;;;9.19;58.10;102630.00;5034571;28;20061;-64
2023/03/02 03:03:59;;;;;;;0.30;0.30;;;;;;;9.20;58.53;102621.78;5034487;28;20042;-65
2023/03/02 03:06:37;;;;;;;0.30;0.30;;;;;;;8.31;61.46;102629.13;5034383;28;20072;-64
2023/03/02 03:09:03;;;;;;;0.30;0.30;;;;;;;8.77;59.47;102632.94;5034243;28;20035;-64
2023/03/02 03:11:32;;;;;;;0.40;0.40;;;;;;;8.32;61.32;102633.44;5034919;28;20035;-67
2023/03/02 03:14:23;;;;;;;0.32;0.32;;;;;;;8.43;60.63;102632.28;5034231;28;20033;-66
2023/03/02 03:16:49;;;;;;;0.28;0.28;;;;;;;8.37;61.44;102641.81;5030139;28;20583;-65
2023/03/02 03:19:20;;;;;;;0.40;0.40;;;;;;;8.50;60.05;102625.25;5014190;28;20057;-67
2023/03/02 03:21:49;;;;;;;0.30;0.30;;;;;;;8.86;59.19;102626.56;5014514;28;20042;-66
2023/03/02 03:24:14;;;;;;;0.32;0.32;;;;;;;8.73;60.03;102627.06;5014050;28;20057;-65
2023/03/02 03:26:40;;;;;;;0.35;0.35;;;;;;;8.67;59.27;102627.75;5021634;28;20441;-65
2023/03/02 03:29:05;;;;;;;0.30;0.30;;;;;;;8.85;59.46;102630.25;5033563;28;20030;-64
2023/03/02 03:31:31;;;;;;;0.30;0.30;;;;;;;8.69;59.76;102631.09;5033836;28;20060;-66
2023/03/02 03:33:59;;;;;;;0.35;0.35;;;;;;;8.74;60.53;102630.59;5033870;28;20041;-64
2023/03/02 03:36:26;;;;;;;0.30;0.30;;;;;;;8.51;60.96;102634.97;5033940;28;20056;-65
2023/03/02 03:38:51;;;;;;;0.38;0.38;;;;;;;9.11;58.42;102633.53;5033542;28;20110;-64
2023/03/02 03:41:16;;;;;;;0.40;0.40;;;;;;;8.72;59.61;102636.13;5034248;28;20088;-65
2023/03/02 03:43:42;;;;;;;0.30;0.30;;;;;;;8.08;61.86;102638.75;5033239;28;20124;-65
2023/03/02 03:46:07;;;;;;;0.40;0.40;;;;;;;9.08;59.48;102635.75;5033631;28;20033;-67
2023/03/02 03:48:32;;;;;;;0.30;0.30;;;;;;;9.07;59.11;102637.56;5033231;28;20132;-67
2023/03/02 03:50:59;;;;;;;0.30;0.30;;;;;;;8.40;61.70;102646.00;5033282;28;20124;-66
2023/03/02 03:53:24;;;;;;;0.30;0.30;;;;;;;9.12;58.79;102639.75;5033787;28;20021;-66
2023/03/02 03:55:50;;;;;;;0.30;0.30;;;;;;;9.13;58.73;102641.41;5033352;28;20044;-66
2023/03/02 03:58:15;;;;;;;0.30;0.30;;;;;;;9.10;58.90;102642.56;5015870;28;20565;-65
2023/03/02 04:00:41;;;;;;;0.30;0.30;;;;;;;8.62;60.66;102643.50;5033412;28;20570;-65
2023/03/02 04:03:06;;;;;;;0.30;0.30;;;;;;;8.80;60.16;102646.00;5033444;28;20032;-64
2023/03/02 04:05:32;;;;;;;0.30;0.30;;;;;;;9.05;58.96;102646.78;5033715;28;20492;-63
2023/03/02 04:08:00;;;;;;;0.30;0.30;;;;;;;8.79;59.51;102650.53;5033212;28;20164;-65
2023/03/02 04:10:27;;;;;;;0.40;0.40;;;;;;;9.21;58.91;102646.75;5033340;28;20029;-68
2023/03/02 04:12:52;;;;;;;0.30;0.30;;;;;;;8.75;59.36;102649.19;5033403;28;20040;-64
2023/03/02 04:15:18;;;;;;;0.30;0.30;;;;;;;9.10;58.27;102653.31;5033175;28;20029;-66
2023/03/02 04:17:43;;;;;;;0.35;0.35;;;;;;;8.97;59.01;102653.00;5020377;28;20022;-64
2023/03/02 04:20:15;;;;;;;0.40;0.40;;;;;;;8.96;59.48;102650.50;5014035;28;20026;-64
2023/03/02 04:22:42;;;;;;;0.30;0.30;;;;;;;9.17;58.43;102658.84;5013291;28;20485;-65
2023/03/02 04:25:08;;;;;;;0.30;0.30;;;;;;;9.20;57.21;102650.47;5013114;28;20038;-64
2023/03/02 04:27:33;;;;;;;0.30;0.30;;;;;;;9.23;57.62;102644.72;5027584;28;20041;-64
2023/03/02 04:29:59;;;;;;;0.30;0.30;;;;;;;9.11;58.18;102641.59;5032870;28;20091;-65
2023/03/02 04:32:24;;;;;;;0.30;0.30;;;;;;;8.86;58.48;102651.50;5033332;28;20113;-63
2023/03/02 04:34:49;;;;;;;0.30;0.30;;;;;;;8.65;59.75;102650.34;5032514;28;20041;-64
2023/03/02 04:37:15;;;;;;;0.40;0.40;;;;;;;9.00;58.25;102652.69;5032843;28;20094;-65
2023/03/02 04:39:41;;;;;;;0.40;0.40;;;;;;;8.83;59.03;102659.06;5031624;28;20048;-64
2023/03/02 04:42:06;;;;;;;0.40;0.40;;;;;;;9.30;57.70;102653.75;5032521;28;20079;-64
2023/03/02 04:44:31;;;;;;;0.40;0.40;;;;;;;9.32;57.47;102657.94;5032953;28;20105;-64
2023/03/02 04:46:57;;;;;;;0.30;0.30;;;;;;;9.03;58.60;102656.84;5032358;28;20143;-65
2023/03/02 04:49:22;;;;;;;0.30;0.30;;;;;;;8.65;59.06;102661.91;5013556;28;20493;-66
2023/03/02 04:51:49;;;;;;;0.40;0.40;;;;;;;8.97;58.75;102658.38;5032584;28;20034;-64
2023/03/02 04:54:18;;;;;;;0.30;0.30;;;;;;;8.76;59.16;102658.06;5032040;28;20045;-64
2023/03/02 04:56:47;;;;;;;0.30;0.30;;;;;;;8.77;59.34;102657.06;5032359;28;20114;-65
2023/03/02 04:59:12;;;;;;;0.35;0.35;;;;;;;8.51;60.26;102670.63;5032631;28;20040;-67
2023/03/02 05:01:38;;;;;;;0.30;0.30;;;;;;;8.65;58.68;102661.91;5030368;28;20041;-65
2023/03/02 05:04:03;;;;;;;0.30;0.30;;;;;;;8.71;59.90;102655.03;5031705;28;20562;-64
2023/03/02 05:06:29;;;;;;;0.35;0.35;;;;;;;8.83;58.91;102642.97;5031738;28;20073;-65
2023/03/02 05:08:54;;;;;;;0.30;0.30;;;;;;;9.71;55.93;102645.38;5029699;28;20033;-66
2023/03/02 05:11:24;;;;;;;0.30;0.30;;;;;;;9.12;57.43;102651.28;5031947;28;20052;-66
2023/03/02 05:13:55;;;;;;;0.43;0.43;;;;;;;9.12;58.01;102651.28;5031504;28;20037;-67
2023/03/02 05:16:23;;;;;;;0.30;0.30;;;;;;;9.28;57.88;102653.94;5030773;28;20049;-66
2023/03/02 05:18:48;;;;;;;0.30;0.30;;;;;;;9.22;57.92;102662.66;5031550;28;20080;-64
2023/03/02 05:21:15;;;;;;;0.30;0.30;;;;;;;9.26;57.01;102657.78;5031895;28;20061;-66
2023/03/02 05:23:41;;;;;;;0.30;0.30;;;;;;;9.23;56.76;102655.47;5031741;28;20025;-65
2023/03/02 05:26:06;;;;;;;0.30;0.30;;;;;;;9.28;57.22;102659.31;5032157;28;20025;-64
2023/03/02 05:28:32;;;;;;;0.25;0.25;;;;;;;9.52;57.08;102661.91;5031913;28;20431;-65
2023/03/02 05:30:58;;;;;;;0.40;0.40;;;;;;;9.10;57.43;102657.84;5031642;28;20048;-64
2023/03/02 05:33:23;;;;;;;0.30;0.30;;;;;;;9.21;57.35;102652.97;5031611;28;20484;-64
2023/03/02 05:35:49;;;;;;;0.20;0.20;;;;;;;8.84;58.09;102658.06;5031560;28;20029;-66
2023/03/02 05:38:15;;;;;;;0.30;0.30;;;;;;;8.82;57.93;102652.84;5032241;28;20394;-65
2023/03/02 05:40:41;;;;;;;0.30;0.30;;;;;;;8.84;58.19;102664.25;5031417;28;20037;-64
2023/03/02 05:43:07;;;;;;;0.30;0.30;;;;;;;9.21;57.76;102657.47;5031467;28;20041;-65
2023/03/02 05:45:35;;;;;;;0.30;0.30;;;;;;;9.33;56.36;102656.94;5031414;28;20030;-64
2023/03/02 05:48:01;;;;;;;0.38;0.38;;;;;;;9.04;58.31;102658.53;5031332;28;20072;-62
2023/03/02 05:50:27;;;;;;;0.30;0.30;;;;;;;9.22;56.79;102643.88;5031553;28;20048;-64
2023/03/02 05:52:52;;;;;;;0.28;0.28;;;;;;;9.45;55.90;102644.00;5031499;28;20033;-65
2023/03/02 05:55:18;;;;;;;0.30;0.30;;;;;;;8.72;58.44;102654.91;5031455;28;20042;-65
2023/03/02 05:57:44;;;;;;;0.30;0.30;;;;;;;9.17;57.55;102657.00;5031449;28;20037;-64
2023/03/02 06:00:11;;;;;;;0.30;0.30;;;;;;;9.48;56.94;102657.06;5031444;28;20036;-65
2023/03/02 06:02:38;;;;;;;0.30;0.30;;;;;;;9.26;56.51;102660.47;5031731;28;20133;-64
2023/03/02 06:05:05;;;;;;;0.30;0.30;;;;;;;9.47;56.10;102653.53;5020264;28;20117;-66
2023/03/02 06:07:30;;;;;;;0.30;0.30;;;;;;;9.43;57.19;102659.44;5022839;28;20416;-65
2023/03/02 06:09:56;;;;;;;0.30;0.30;;;;;;;8.93;57.55;102651.66;5024652;28;20037;-65
2023/03/02 06:12:22;;;;;;;0.28;0.28;;;;;;;9.40;56.63;102657.91;5025325;28;20057;-65
2023/03/02 06:14:47;;;;;;;0.30;0.30;;;;;;;9.23;57.19;102660.84;5022364;28;20377;-65
2023/03/02 06:17:12;;;;;;;0.30;0.30;;;;;;;8.68;57.90;102658.91;5004040;28;20620;-64
2023/03/02 06:19:38;;;;;;;0.30;0.30;;;;;;;9.11;57.57;102662.19;5024869;28;20029;-64
2023/03/02 06:22:03;;;;;;;0.28;0.28;;;;;;;9.46;56.61;102659.91;5027137;28;20056;-64
2023/03/02 06:24:28;;;;;;;0.40;0.40;;;;;;;9.02;57.98;102661.38;5023716;28;20049;-66
2023/03/02 06:26:54;;;;;;;0.30;0.30;;;;;;;9.11;57.77;102668.41;5018522;28;20037;-70
2023/03/02 06:29:20;;;;;;;0.38;0.38;;;;;;;9.25;57.67;102667.72;5015003;28;20037;-65
2023/03/02 06:31:46;;;;;;;0.30;0.30;;;;;;;8.99;58.19;102669.75;5028744;28;20053;-64
2023/03/02 06:34:11;;;;;;;0.22;0.22;;;;;;;9.40;57.46;102665.97;5028405;28;20061;-66
2023/03/02 06:36:37;;;;;;;0.30;0.30;;;;;;;9.57;56.60;102666.75;5026435;28;20033;-66
2023/03/02 06:39:07;;;;;;;0.40;0.40;;;;;;;9.31;57.04;102667.03;5024593;28;20168;-63
2023/03/02 06:41:32;;;;;;;0.30;0.30;;;;;;;9.26;57.76;102674.72;5025273;28;20076;-65
2023/03/02 06:44:00;;;;;;;0.30;0.30;;;;;;;9.18;58.82;102679.28;5026363;28;20033;-64
2023/03/02 06:46:26;;;;;;;0.30;0.30;;;;;;;9.02;58.93;102674.78;5026901;28;20061;-64
2023/03/02 06:48:51;;;;;;;0.30;0.30;;;;;;;8.96;60.00;102674.63;5027376;28;20034;-65
2023/03/02 06:51:17;;;;;;;0.20;0.20;;;;;;;8.49;60.65;102674.50;5022133;28;20069;-64
2023/03/02 06:53:42;;;;;;;0.35;0.35;;;;;;;8.73;60.60;102678.00;5027599;28;20022;-65
2023/03/02 06:56:08;;;;;;;0.40;0.40;;;;;;;9.12;59.62;102678.09;5027857;28;20035;-64
2023/03/02 06:58:35;;;;;;;0.38;0.38;;;;;;;8.72;60.11;102670.97;5027590;28;20033;-64
2023/03/02 07:01:00;;;;;;;0.35;0.35;;;;;;;9.16;59.13;102679.44;5029978;28;20385;-65
2023/03/02 07:03:26;;;;;;;0.35;0.35;;;;;;;9.11;58.61;102680.97;5033092;28;20099;-64
2023/03/02 07:05:51;;;;;;;0.30;0.30;;;;;;;9.33;58.22;102681.09;5034383;28;20044;-66
2023/03/02 07:08:17;;;;;;;0.30;0.30;;;;;;;9.45;57.32;102679.69;5034739;28;20104;-65
2023/03/02 07:10:42;;;;;;;0.30;0.30;;;;;;;9.89;57.43;102680.03;5034049;28;20044;-64
2023/03/02 07:13:07;;;;;;;0.25;0.25;;;;;;;9.98;57.09;102681.66;5034072;28;20530;-65
2023/03/02 07:15:33;;;;;;;0.30;0.30;;;;;;;9.61;57.75;102685.00;5030337;28;20038;-68
2023/03/02 07:17:58;;;;;;;0.30;0.30;;;;;;;9.62;58.00;102684.00;5030147;28;20481;-66
2023/03/02 07:20:23;;;;;;;0.30;0.30;;;;;;;8.72;59.32;102684.38;5033979;28;20076;-65
2023/03/02 07:22:49;;;;;;;0.30;0.30;;;;;;;9.37;58.40;102669.00;5033960;28;20045;-66
2023/03/02 07:25:14;;;;;;;0.20;0.20;;;;;;;9.66;57.60;102666.56;5033685;28;20045;-66
2023/03/02 07:27:39;;;;;;;0.30;0.30;;;;;;;9.09;59.37;102674.94;5018074;28;20044;-64
2023/03/02 07:30:05;;;;;;;0.40;0.40;;;;;;;9.71;57.29;102677.59;5014016;28;20038;-66
2023/03/02 07:32:31;;;;;;;0.30;0.30;;;;;;;9.05;59.32;102676.28;5022035;28;20099;-65
2023/03/02 07:34:56;;;;;;;0.30;0.30;;;;;;;9.59;57.65;102686.22;5029952;28;20128;-65
2023/03/02 07:37:22;;;;;;;0.30;0.30;;;;;;;9.28;58.86;102687.97;5030880;28;20044;-65
2023/03/02 07:39:48;;;;;;;0.30;0.30;;;;;;;9.77;56.67;102680.59;5029736;28;20133;-65
2023/03/02 07:42:14;;;;;;;0.30;0.30;;;;;;;9.20;58.71;102686.13;5018083;28;20037;-64
2023/03/02 07:44:39;;;;;;;0.30;0.30;;;;;;;8.19;62.48;102692.00;5011659;28;20381;-64
2023/03/02 07:47:05;;;;;;;0.30;0.30;;;;;;;9.13;60.20;102692.38;5010246;28;20516;-64
2023/03/02 07:49:30;;;;;;;0.30;0.30;;;;;;;8.49;61.08;102694.06;5016290;28;20050;-65
2023/03/02 07:51:56;;;;;;;0.30;0.30;;;;;;;9.38;58.89;102689.47;5030318;28;20049;-65
2023/03/02 07:54:21;;;;;;;0.40;0.40;;;;;;;9.42;58.85;102693.47;5029823;28;20455;-65
2023/03/02 07:56:47;;;;;;;0.30;0.30;;;;;;;9.95;57.26;102694.59;5030027;28;20052;-65
2023/03/02 07:59:12;;;;;;;0.40;0.40;;;;;;;9.97;57.50;102684.50;5028663;28;20037;-64
2023/03/02 08:01:38;;;;;;;0.30;0.30;;;;;;;9.90;57.74;102692.44;5029394;28;20064;-65
2023/03/02 08:04:04;;;;;;;0.30;0.30;;;;;;;10.07;56.74;102691.34;5030304;28;20045;-64
2023/03/02 08:06:29;;;;;;;0.40;0.40;;;;;;;10.34;56.30;102693.53;5029989;28;20152;-64
2023/03/02 08:08:55;;;;;;;0.20;0.20;;;;;;;10.23;56.78;102683.22;5029915;28;20029;-66
2023/03/02 08:11:21;;;;;;;0.30;0.30;;;;;;;10.31;56.41;102693.06;5030408;28;20036;-66
2023/03/02 08:13:46;;;;;;;0.22;0.22;;;;;;;9.26;60.14;102690.81;5029705;28;20048;-65
2023/03/02 08:16:14;;;;;;;0.30;0.30;;;;;;;9.85;58.58;102694.81;5019287;28;20069;-66
2023/03/02 08:18:40;;;;;;;0.30;0.30;;;;;;;10.09;57.61;102688.47;5028852;28;20033;-65
2023/03/02 08:21:18;;;;;;;0.35;0.35;;;;;;;10.37;56.73;102681.59;5029425;28;20114;-65
2023/03/02 08:23:44;;;;;;;0.32;0.32;;;;;;;10.55;55.84;102690.22;5029159;28;20120;-64
2023/03/02 08:26:11;;;;;;;0.38;0.38;;;;;;;10.20;57.34;102680.88;5029491;28;20358;-65
2023/03/02 08:28:36;;;;;;;0.30;0.30;;;;;;;10.42;56.92;102681.91;5030258;28;20128;-65
2023/03/02 08:31:03;;;;;;;0.30;0.30;;;;;;;10.25;56.85;102678.50;5029250;28;20035;-68
2023/03/02 08:33:29;;;;;;;0.30;0.30;;;;;;;9.80;58.31;102674.88;5029295;28;20183;-66
2023/03/02 08:35:57;;;;;;;0.30;0.30;;;;;;;10.23;57.51;102683.22;5029071;28;20135;-66
2023/03/02 08:38:23;;;;;;;0.38;0.38;;;;;;;10.59;56.13;102684.28;5030713;28;20465;-65
2023/03/02 08:40:50;;;;;;;0.30;0.30;;;;;;;9.82;58.02;102686.28;5030942;28;20045;-65
2023/03/02 08:43:16;;;;;;;0.30;0.30;;;;;;;9.90;57.44;102691.59;5031633;28;20505;-66
2023/03/02 08:45:41;;;;;;;0.30;0.30;;;;;;;10.45;56.57;102685.09;5029470;28;20128;-66
2023/03/02 08:48:06;;;;;;;0.30;0.30;;;;;;;10.56;56.16;102686.50;5029238;28;20389;-65
2023/03/02 08:50:32;;;;;;;0.30;0.30;;;;;;;10.34;56.00;102688.16;5029723;28;20446;-65
2023/03/02 08:52:57;;;;;;;0.20;0.20;;;;;;;10.14;56.90;102684.25;5028910;28;20128;-63
2023/03/02 08:55:22;;;;;;;0.30;0.30;;;;;;;10.36;57.07;102686.13;5011664;28;20042;-64
2023/03/02 08:57:48;;;;;;;0.30;0.30;;;;;;;10.09;57.88;102678.56;5028929;28;20058;-64
2023/03/02 09:00:15;;;;;;;0.30;0.30;;;;;;;10.81;55.54;102684.47;5027947;28;20060;-64
2023/03/02 09:02:40;;;;;;;0.20;0.20;;;;;;;11.15;54.68;102684.78;5027089;28;20037;-63
2023/03/02 09:05:06;;;;;;;0.40;0.40;;;;;;;11.40;54.21;102686.19;5021777;28;20087;-65
2023/03/02 09:07:31;;;;;;;0.40;0.40;;;;;;;11.52;54.35;102686.59;4999230;28;20042;-64
2023/03/02 09:09:57;;;;;;;0.20;0.20;;;;;;;11.15;55.72;102685.63;5020871;28;20722;-63
2023/03/02 09:12:22;;;;;;;0.20;0.20;;;;;;;10.89;55.36;102681.69;5017432;28;20544;-64
2023/03/02 09:14:48;;;;;;;0.22;0.22;;;;;;;10.75;55.99;102680.63;5019595;28;20037;-65
2023/03/02 09:17:14;;;;;;;0.20;0.20;;;;;;;10.81;55.43;102677.19;5021262;28;20033;-64
2023/03/02 09:19:40;;;;;;;0.30;0.30;;;;;;;11.38;54.59;102681.00;5010008;28;20125;-64
2023/03/02 09:22:09;;;;;;;0.20;0.20;;;;;;;11.23;54.75;102673.94;5008920;28;20041;-65
2023/03/02 09:24:35;;;;;;;0.28;0.28;;;;;;;11.13;54.83;102668.00;5008843;28;20137;-64
2023/03/02 09:27:01;;;;;;;0.30;0.30;;;;;;;11.46;53.64;102680.06;5022026;28;20051;-63
2023/03/02 09:29:26;;;;;;;0.30;0.30;;;;;;;11.15;53.78;102674.03;5029121;28;20156;-64
2023/03/02 09:31:52;;;;;;;0.28;0.28;;;;;;;11.16;54.53;102671.13;5027941;28;20120;-64
2023/03/02 09:34:17;;;;;;;0.40;0.40;;;;;;;11.31;53.88;102671.16;5028421;28;20033;-64
2023/03/02 09:36:43;;;;;;;0.20;0.20;;;;;;;11.69;52.58;102666.53;5028608;28;20044;-64
2023/03/02 09:39:11;;;;;;;0.28;0.28;;;;;;;11.65;52.60;102674.13;5009437;28;20681;-65
2023/03/02 09:42:10;;;;;;;0.20;0.20;;;;;;;11.47;53.31;102666.44;5020365;28;20041;-64
2023/03/02 09:44:41;;;;;;;0.20;0.20;;;;;;;11.43;53.77;102670.53;5026258;28;20041;-65
2023/03/02 09:47:30;;;;;;;0.30;0.30;;;;;;;11.61;53.67;102672.00;5017763;28;20136;-63
2023/03/02 09:49:56;;;;;;;0.40;0.40;;;;;;;11.79;52.13;102672.47;5004631;28;20152;-65
2023/03/02 09:52:30;;;;;;;0.30;0.30;;;;;;;11.41;53.76;102669.03;5027535;28;20167;-64
2023/03/02 09:55:00;;;;;;;0.20;0.20;;;;;;;11.69;52.72;102675.47;5026246;28;20037;-65
2023/03/02 09:57:31;;;;;;;0.20;0.20;;;;;;;11.60;53.86;102670.31;5026995;28;20033;-64
2023/03/02 10:00:09;;;;;;;0.25;0.25;;;;;;;11.74;53.12;102677.56;5027147;28;20026;-64
2023/03/02 10:02:43;;;;;;;0.28;0.28;;;;;;;11.32;53.98;102680.91;5009690;28;20033;-64
2023/03/02 10:05:17;;;;;;;0.20;0.20;;;;;;;11.45;54.14;102679.25;5025489;28;20129;-65
2023/03/02 10:07:43;;;;;;;0.20;0.20;;;;;;;11.42;53.87;102674.22;5027045;28;20069;-63
2023/03/02 10:10:18;;;;;;;0.38;0.38;;;;;;;10.61;55.26;102671.50;5027704;28;20523;-62
2023/03/02 10:12:46;;;;;;;0.20;0.20;;;;;;;11.90;52.91;102667.44;5026619;28;20041;-64
2023/03/02 10:15:45;;;;;;;0.20;0.20;;;;;;;12.26;52.42;102668.22;5026125;28;20037;-63
2023/03/02 10:18:37;;;;;;;0.30;0.30;;;;;;;12.36;52.47;102663.34;5024660;28;20477;-63
2023/03/02 10:21:20;;;;;;;0.22;0.22;;;;;;;13.33;49.38;102666.22;5025098;28;20136;-64
2023/03/02 10:24:12;;;;;;;0.30;0.30;;;;;;;13.00;50.90;102666.00;5025955;28;20371;-64
2023/03/02 10:26:41;;;;;;;0.30;0.30;;;;;;;13.32;50.10;102664.56;5023857;28;20033;-64
2023/03/02 10:29:09;;;;;;;0.35;0.35;;;;;;;13.35;48.31;102674.97;5023683;28;20378;-64
2023/03/02 10:31:39;;;;;;;0.40;0.40;;;;;;;12.97;49.33;102671.78;5021370;28;20095;-64
2023/03/02 10:34:07;;;;;;;0.30;0.30;;;;;;;12.54;49.70;102676.38;5024500;28;20516;-63
2023/03/02 10:36:42;;;;;;;0.22;0.22;;;;;;;13.41;48.59;102677.72;5026191;28;20075;-64
2023/03/02 10:39:13;;;;;;;0.30;0.30;;;;;;;13.99;47.73;102684.44;5030116;28;20163;-63
2023/03/02 10:41:48;;;;;;;0.40;0.40;;;;;;;13.15;48.69;102677.53;5010567;28;20576;-64
2023/03/02 10:44:21;;;;;;;0.20;0.20;;;;;;;13.30;48.01;102672.88;5030878;28;20048;-65
2023/03/02 10:46:47;;;;;;;0.25;0.25;;;;;;;12.38;49.23;102682.06;5030966;28;20025;-64
2023/03/02 10:49:41;;;;;;;0.30;0.30;;;;;;;13.59;47.67;102679.88;5028867;28;20374;-64
2023/03/02 10:52:15;;;;;;;0.30;0.30;;;;;;;13.16;48.69;102674.66;5028963;28;20057;-64
2023/03/02 10:54:41;;;;;;;0.30;0.30;;;;;;;13.71;48.54;102675.59;5031079;28;20029;-64
2023/03/02 10:57:36;;;;;;;0.20;0.20;;;;;;;13.41;49.26;102674.16;5030074;28;20221;-65
2023/03/02 11:00:10;;;;;;;0.35;0.35;;;;;;;12.78;49.48;102672.44;5030360;28;20116;-63
2023/03/02 11:02:36;;;;;;;0.40;0.40;;;;;;;12.99;48.72;102664.34;5012310;28;20026;-65
2023/03/02 11:05:27;;;;;;;0.25;0.25;;;;;;;13.01;49.61;102676.59;5010669;28;20045;-63
2023/03/02 11:08:03;;;;;;;0.38;0.38;;;;;;;13.06;48.57;102668.78;5016769;28;20381;-64
2023/03/02 11:10:33;;;;;;;0.30;0.30;;;;;;;13.25;48.54;102666.41;5028058;28;20255;-64
2023/03/02 11:13:00;;;;;;;0.30;0.30;;;;;;;13.06;49.41;102676.03;5026404;28;20037;-62
2023/03/02 11:15:38;;;;;;;0.32;0.32;;;;;;;12.84;48.95;102667.13;5025557;28;20492;-63
2023/03/02 11:18:06;;;;;;;0.30;0.30;;;;;;;13.70;48.26;102655.84;5008521;28;20112;-62
2023/03/02 11:20:38;;;;;;;0.20;0.20;;;;;;;14.38;46.38;102654.81;5029902;28;20048;-64
2023/03/02 11:23:46;;;;;;;0.30;0.30;;;;;;;14.49;46.23;102648.78;5028210;28;20615;-63
2023/03/02 11:26:24;;;;;;;0.30;0.30;;;;;;;14.25;46.13;102648.53;4972693;28;20054;-65
2023/03/02 11:29:01;;;;;;;0.30;0.30;;;;;;;14.17;46.69;102646.84;4963623;28;20054;-64
2023/03/02 11:31:45;;;;;;;0.30;0.30;;;;;;;14.47;45.08;102641.91;4963925;28;20039;-62
2023/03/02 11:34:25;;;;;;;0.40;0.40;;;;;;;14.62;45.41;102639.88;4966392;28;20078;-64
2023/03/02 11:37:14;;;;;;;0.25;0.25;;;;;;;13.74;47.28;102632.78;4963266;28;20064;-64